sensor_id;sensor_type;location;lat;lon;timestamp;P1;durP1;ratioP1;P2;durP2;ratioP2
37231;SDS011;23125;48.156;15.954;2022-12-26T00:01:44;12.85;;;8.60;;
37231;SDS011;23125;48.156;15.954;2022-12-26T00:04:14;9.88;;;6.80;;
37231;SDS011;23125;48.156;15.954;2022-12-26T00:06:41;8.85;;;6.70;;
37231;SDS011;23125;48.156;15.954;2022-12-26T00:09:07;11.02;;;7.10;;
37231;SDS011;23125;48.156;15.954;2022-12-26T00:11:33;9.60;;;6.95;;
37231;SDS011;23125;48.156;15.954;2022-12-26T00:14:01;10.20;;;6.97;;
37231;SDS011;23125;48.156;15.954;2022-12-26T00:18:55;8.85;;;5.75;;
37231;SDS011;23125;48.156;15.954;2022-12-26T00:21:21;8.75;;;6.20;;
37231;SDS011;23125;48.156;15.954;2022-12-26T00:23:49;11.45;;;6.45;;
37231;SDS011;23125;48.156;15.954;2022-12-26T00:26:16;10.43;;;6.45;;
37231;SDS011;23125;48.156;15.954;2022-12-26T00:28:44;9.37;;;5.70;;
37231;SDS011;23125;48.156;15.954;2022-12-26T00:31:11;7.93;;;5.55;;
37231;SDS011;23125;48.156;15.954;2022-12-26T00:33:39;9.27;;;6.20;;
37231;SDS011;23125;48.156;15.954;2022-12-26T00:36:08;8.15;;;5.80;;
37231;SDS011;23125;48.156;15.954;2022-12-26T00:38:39;9.18;;;6.53;;
37231;SDS011;23125;48.156;15.954;2022-12-26T00:41:06;6.57;;;5.35;;
37231;SDS011;23125;48.156;15.954;2022-12-26T00:43:34;8.93;;;5.40;;
37231;SDS011;23125;48.156;15.954;2022-12-26T00:46:00;10.73;;;6.38;;
37231;SDS011;23125;48.156;15.954;2022-12-26T00:48:26;8.77;;;6.00;;
37231;SDS011;23125;48.156;15.954;2022-12-26T00:50:52;6.78;;;5.25;;
37231;SDS011;23125;48.156;15.954;2022-12-26T00:53:19;8.20;;;5.60;;
37231;SDS011;23125;48.156;15.954;2022-12-26T00:55:46;9.77;;;5.97;;
37231;SDS011;23125;48.156;15.954;2022-12-26T00:58:12;10.48;;;6.60;;
37231;SDS011;23125;48.156;15.954;2022-12-26T01:00:38;13.20;;;6.10;;
37231;SDS011;23125;48.156;15.954;2022-12-26T01:03:07;8.15;;;6.32;;
37231;SDS011;23125;48.156;15.954;2022-12-26T01:05:34;7.28;;;5.55;;
37231;SDS011;23125;48.156;15.954;2022-12-26T01:08:00;8.45;;;5.55;;
37231;SDS011;23125;48.156;15.954;2022-12-26T01:10:26;8.85;;;5.63;;
37231;SDS011;23125;48.156;15.954;2022-12-26T01:12:52;8.25;;;5.05;;
37231;SDS011;23125;48.156;15.954;2022-12-26T01:15:18;6.88;;;5.45;;
37231;SDS011;23125;48.156;15.954;2022-12-26T01:17:44;7.07;;;5.00;;
37231;SDS011;23125;48.156;15.954;2022-12-26T01:20:11;10.40;;;5.57;;
37231;SDS011;23125;48.156;15.954;2022-12-26T01:22:37;7.68;;;5.65;;
37231;SDS011;23125;48.156;15.954;2022-12-26T01:25:03;10.32;;;5.10;;
37231;SDS011;23125;48.156;15.954;2022-12-26T01:27:29;10.05;;;6.53;;
37231;SDS011;23125;48.156;15.954;2022-12-26T01:29:55;8.85;;;6.07;;
37231;SDS011;23125;48.156;15.954;2022-12-26T01:32:21;9.15;;;6.22;;
37231;SDS011;23125;48.156;15.954;2022-12-26T01:34:47;12.07;;;7.38;;
37231;SDS011;23125;48.156;15.954;2022-12-26T01:37:14;9.98;;;6.63;;
37231;SDS011;23125;48.156;15.954;2022-12-26T01:39:41;10.57;;;7.47;;
37231;SDS011;23125;48.156;15.954;2022-12-26T01:42:13;11.73;;;6.70;;
37231;SDS011;23125;48.156;15.954;2022-12-26T01:47:36;8.57;;;5.68;;
37231;SDS011;23125;48.156;15.954;2022-12-26T01:50:04;7.78;;;5.43;;
37231;SDS011;23125;48.156;15.954;2022-12-26T01:52:39;7.57;;;5.30;;
37231;SDS011;23125;48.156;15.954;2022-12-26T01:55:10;8.63;;;6.25;;
37231;SDS011;23125;48.156;15.954;2022-12-26T02:00:07;8.43;;;5.28;;
37231;SDS011;23125;48.156;15.954;2022-12-26T02:02:34;8.07;;;5.85;;
37231;SDS011;23125;48.156;15.954;2022-12-26T02:05:22;9.52;;;5.47;;
37231;SDS011;23125;48.156;15.954;2022-12-26T02:07:58;7.35;;;5.53;;
37231;SDS011;23125;48.156;15.954;2022-12-26T02:10:46;8.20;;;5.35;;
37231;SDS011;23125;48.156;15.954;2022-12-26T02:13:16;10.98;;;5.72;;
37231;SDS011;23125;48.156;15.954;2022-12-26T02:15:42;7.07;;;5.40;;
37231;SDS011;23125;48.156;15.954;2022-12-26T02:18:08;9.50;;;5.40;;
37231;SDS011;23125;48.156;15.954;2022-12-26T02:21:23;9.00;;;5.25;;
37231;SDS011;23125;48.156;15.954;2022-12-26T02:26:26;7.65;;;5.22;;
37231;SDS011;23125;48.156;15.954;2022-12-26T02:29:13;7.82;;;4.68;;
37231;SDS011;23125;48.156;15.954;2022-12-26T02:31:51;7.28;;;4.40;;
37231;SDS011;23125;48.156;15.954;2022-12-26T02:40:53;6.10;;;3.90;;
37231;SDS011;23125;48.156;15.954;2022-12-26T02:49:42;4.90;;;3.17;;
37231;SDS011;23125;48.156;15.954;2022-12-26T02:53:03;4.22;;;3.03;;
37231;SDS011;23125;48.156;15.954;2022-12-26T02:56:05;4.38;;;3.22;;
37231;SDS011;23125;48.156;15.954;2022-12-26T02:59:00;5.85;;;3.28;;
37231;SDS011;23125;48.156;15.954;2022-12-26T03:01:50;4.28;;;2.80;;
37231;SDS011;23125;48.156;15.954;2022-12-26T03:04:43;4.57;;;3.00;;
37231;SDS011;23125;48.156;15.954;2022-12-26T03:07:33;3.83;;;2.90;;
37231;SDS011;23125;48.156;15.954;2022-12-26T03:10:24;4.78;;;3.05;;
37231;SDS011;23125;48.156;15.954;2022-12-26T03:13:14;4.53;;;2.70;;
37231;SDS011;23125;48.156;15.954;2022-12-26T03:18:38;3.78;;;2.03;;
37231;SDS011;23125;48.156;15.954;2022-12-26T03:21:13;4.55;;;2.53;;
37231;SDS011;23125;48.156;15.954;2022-12-26T03:23:42;3.25;;;2.08;;
37231;SDS011;23125;48.156;15.954;2022-12-26T03:26:12;3.28;;;1.55;;
37231;SDS011;23125;48.156;15.954;2022-12-26T03:29:01;2.85;;;1.58;;
37231;SDS011;23125;48.156;15.954;2022-12-26T03:31:46;4.18;;;1.77;;
37231;SDS011;23125;48.156;15.954;2022-12-26T03:34:12;2.05;;;1.50;;
37231;SDS011;23125;48.156;15.954;2022-12-26T03:42:13;2.65;;;1.52;;
37231;SDS011;23125;48.156;15.954;2022-12-26T03:48:00;2.30;;;1.48;;
37231;SDS011;23125;48.156;15.954;2022-12-26T03:50:57;1.98;;;1.25;;
37231;SDS011;23125;48.156;15.954;2022-12-26T03:54:03;1.75;;;1.13;;
37231;SDS011;23125;48.156;15.954;2022-12-26T03:56:59;4.20;;;1.50;;
37231;SDS011;23125;48.156;15.954;2022-12-26T03:59:54;1.73;;;1.05;;
37231;SDS011;23125;48.156;15.954;2022-12-26T04:02:46;2.80;;;1.35;;
37231;SDS011;23125;48.156;15.954;2022-12-26T04:05:33;3.08;;;1.30;;
37231;SDS011;23125;48.156;15.954;2022-12-26T04:08:23;1.30;;;0.85;;
37231;SDS011;23125;48.156;15.954;2022-12-26T04:11:14;2.60;;;1.13;;
37231;SDS011;23125;48.156;15.954;2022-12-26T04:14:28;1.42;;;0.93;;
37231;SDS011;23125;48.156;15.954;2022-12-26T04:17:42;1.52;;;0.90;;
37231;SDS011;23125;48.156;15.954;2022-12-26T04:20:48;1.80;;;0.90;;
37231;SDS011;23125;48.156;15.954;2022-12-26T04:23:43;1.40;;;0.85;;
37231;SDS011;23125;48.156;15.954;2022-12-26T04:26:39;1.73;;;0.85;;
37231;SDS011;23125;48.156;15.954;2022-12-26T04:29:28;1.58;;;0.85;;
37231;SDS011;23125;48.156;15.954;2022-12-26T04:32:17;2.20;;;0.77;;
37231;SDS011;23125;48.156;15.954;2022-12-26T04:38:26;1.30;;;0.60;;
37231;SDS011;23125;48.156;15.954;2022-12-26T04:41:14;1.83;;;0.57;;
37231;SDS011;23125;48.156;15.954;2022-12-26T04:44:01;2.10;;;0.98;;
37231;SDS011;23125;48.156;15.954;2022-12-26T04:46:38;1.67;;;1.00;;
37231;SDS011;23125;48.156;15.954;2022-12-26T04:49:09;1.80;;;0.85;;
37231;SDS011;23125;48.156;15.954;2022-12-26T04:51:57;1.73;;;0.75;;
37231;SDS011;23125;48.156;15.954;2022-12-26T04:54:24;1.48;;;0.90;;
37231;SDS011;23125;48.156;15.954;2022-12-26T04:56:51;1.60;;;0.90;;
37231;SDS011;23125;48.156;15.954;2022-12-26T04:59:18;1.27;;;0.70;;
37231;SDS011;23125;48.156;15.954;2022-12-26T05:01:44;1.30;;;0.80;;
37231;SDS011;23125;48.156;15.954;2022-12-26T05:04:29;1.33;;;0.65;;
37231;SDS011;23125;48.156;15.954;2022-12-26T05:07:22;3.35;;;1.08;;
37231;SDS011;23125;48.156;15.954;2022-12-26T05:10:12;1.25;;;0.80;;
37231;SDS011;23125;48.156;15.954;2022-12-26T05:12:48;5.05;;;1.80;;
37231;SDS011;23125;48.156;15.954;2022-12-26T05:15:14;3.85;;;1.90;;
37231;SDS011;23125;48.156;15.954;2022-12-26T05:17:40;3.58;;;1.85;;
37231;SDS011;23125;48.156;15.954;2022-12-26T05:20:25;4.97;;;1.67;;
37231;SDS011;23125;48.156;15.954;2022-12-26T05:23:27;3.47;;;1.50;;
37231;SDS011;23125;48.156;15.954;2022-12-26T05:26:16;4.30;;;1.67;;
37231;SDS011;23125;48.156;15.954;2022-12-26T05:29:05;5.43;;;2.22;;
37231;SDS011;23125;48.156;15.954;2022-12-26T05:31:31;5.80;;;1.88;;
37231;SDS011;23125;48.156;15.954;2022-12-26T05:33:58;4.25;;;2.28;;
37231;SDS011;23125;48.156;15.954;2022-12-26T05:36:36;6.55;;;2.20;;
37231;SDS011;23125;48.156;15.954;2022-12-26T05:39:13;3.47;;;1.58;;
37231;SDS011;23125;48.156;15.954;2022-12-26T05:41:39;3.38;;;1.50;;
37231;SDS011;23125;48.156;15.954;2022-12-26T05:44:05;3.40;;;1.80;;
37231;SDS011;23125;48.156;15.954;2022-12-26T05:46:32;3.03;;;1.60;;
37231;SDS011;23125;48.156;15.954;2022-12-26T05:48:58;3.63;;;1.67;;
37231;SDS011;23125;48.156;15.954;2022-12-26T05:51:24;3.22;;;1.50;;
37231;SDS011;23125;48.156;15.954;2022-12-26T05:53:50;3.00;;;1.50;;
37231;SDS011;23125;48.156;15.954;2022-12-26T05:56:17;2.42;;;1.17;;
37231;SDS011;23125;48.156;15.954;2022-12-26T05:58:44;3.00;;;1.63;;
37231;SDS011;23125;48.156;15.954;2022-12-26T06:01:14;2.60;;;1.70;;
37231;SDS011;23125;48.156;15.954;2022-12-26T06:03:42;2.83;;;1.30;;
37231;SDS011;23125;48.156;15.954;2022-12-26T06:06:11;2.80;;;1.27;;
37231;SDS011;23125;48.156;15.954;2022-12-26T06:08:38;2.92;;;1.10;;
37231;SDS011;23125;48.156;15.954;2022-12-26T06:11:08;2.65;;;1.42;;
37231;SDS011;23125;48.156;15.954;2022-12-26T06:13:36;3.33;;;1.35;;
37231;SDS011;23125;48.156;15.954;2022-12-26T06:16:06;2.47;;;1.90;;
37231;SDS011;23125;48.156;15.954;2022-12-26T06:18:34;3.50;;;1.95;;
37231;SDS011;23125;48.156;15.954;2022-12-26T06:21:21;3.97;;;2.20;;
37231;SDS011;23125;48.156;15.954;2022-12-26T06:23:46;5.28;;;2.10;;
37231;SDS011;23125;48.156;15.954;2022-12-26T06:26:13;3.88;;;2.20;;
37231;SDS011;23125;48.156;15.954;2022-12-26T06:28:40;6.18;;;2.80;;
37231;SDS011;23125;48.156;15.954;2022-12-26T06:31:11;5.93;;;2.38;;
37231;SDS011;23125;48.156;15.954;2022-12-26T06:33:40;3.42;;;2.30;;
37231;SDS011;23125;48.156;15.954;2022-12-26T06:36:07;7.97;;;3.88;;
37231;SDS011;23125;48.156;15.954;2022-12-26T06:38:35;10.35;;;4.95;;
37231;SDS011;23125;48.156;15.954;2022-12-26T06:41:05;7.13;;;4.50;;
37231;SDS011;23125;48.156;15.954;2022-12-26T06:43:33;10.38;;;5.20;;
37231;SDS011;23125;48.156;15.954;2022-12-26T06:46:00;7.45;;;3.75;;
37231;SDS011;23125;48.156;15.954;2022-12-26T06:48:28;6.15;;;3.42;;
37231;SDS011;23125;48.156;15.954;2022-12-26T06:50:54;5.15;;;3.47;;
37231;SDS011;23125;48.156;15.954;2022-12-26T06:53:20;5.85;;;2.92;;
37231;SDS011;23125;48.156;15.954;2022-12-26T06:55:47;4.22;;;2.50;;
37231;SDS011;23125;48.156;15.954;2022-12-26T06:58:14;3.42;;;2.28;;
37231;SDS011;23125;48.156;15.954;2022-12-26T07:00:41;3.08;;;1.83;;
37231;SDS011;23125;48.156;15.954;2022-12-26T07:03:08;4.85;;;2.15;;
37231;SDS011;23125;48.156;15.954;2022-12-26T07:05:35;2.47;;;1.60;;
37231;SDS011;23125;48.156;15.954;2022-12-26T07:08:02;9.35;;;3.25;;
37231;SDS011;23125;48.156;15.954;2022-12-26T07:10:28;8.90;;;3.28;;
37231;SDS011;23125;48.156;15.954;2022-12-26T07:12:58;16.75;;;6.10;;
37231;SDS011;23125;48.156;15.954;2022-12-26T07:15:24;19.95;;;6.82;;
37231;SDS011;23125;48.156;15.954;2022-12-26T07:17:50;33.13;;;13.90;;
37231;SDS011;23125;48.156;15.954;2022-12-26T07:20:16;12.73;;;6.03;;
37231;SDS011;23125;48.156;15.954;2022-12-26T07:22:42;12.27;;;6.53;;
37231;SDS011;23125;48.156;15.954;2022-12-26T07:25:08;13.93;;;7.75;;
37231;SDS011;23125;48.156;15.954;2022-12-26T07:27:34;12.68;;;6.53;;
37231;SDS011;23125;48.156;15.954;2022-12-26T07:30:00;15.52;;;6.88;;
37231;SDS011;23125;48.156;15.954;2022-12-26T07:32:26;19.23;;;8.63;;
37231;SDS011;23125;48.156;15.954;2022-12-26T07:34:52;14.75;;;7.65;;
37231;SDS011;23125;48.156;15.954;2022-12-26T07:37:18;14.93;;;7.03;;
37231;SDS011;23125;48.156;15.954;2022-12-26T07:39:44;13.20;;;8.02;;
37231;SDS011;23125;48.156;15.954;2022-12-26T07:42:09;13.80;;;7.20;;
37231;SDS011;23125;48.156;15.954;2022-12-26T07:44:35;11.23;;;6.20;;
37231;SDS011;23125;48.156;15.954;2022-12-26T07:47:03;10.50;;;6.00;;
37231;SDS011;23125;48.156;15.954;2022-12-26T07:49:29;10.18;;;6.53;;
37231;SDS011;23125;48.156;15.954;2022-12-26T07:51:55;11.80;;;6.97;;
37231;SDS011;23125;48.156;15.954;2022-12-26T07:54:21;11.82;;;5.47;;
37231;SDS011;23125;48.156;15.954;2022-12-26T07:56:47;10.55;;;6.28;;
37231;SDS011;23125;48.156;15.954;2022-12-26T07:59:14;13.05;;;6.15;;
37231;SDS011;23125;48.156;15.954;2022-12-26T08:01:41;9.52;;;5.97;;
37231;SDS011;23125;48.156;15.954;2022-12-26T08:04:08;9.27;;;5.40;;
37231;SDS011;23125;48.156;15.954;2022-12-26T08:06:35;7.35;;;4.88;;
37231;SDS011;23125;48.156;15.954;2022-12-26T08:09:01;6.55;;;4.50;;
37231;SDS011;23125;48.156;15.954;2022-12-26T08:11:27;7.40;;;5.78;;
37231;SDS011;23125;48.156;15.954;2022-12-26T08:13:56;11.38;;;7.38;;
37231;SDS011;23125;48.156;15.954;2022-12-26T08:16:21;10.75;;;6.30;;
37231;SDS011;23125;48.156;15.954;2022-12-26T08:18:47;6.93;;;4.97;;
37231;SDS011;23125;48.156;15.954;2022-12-26T08:21:13;6.18;;;4.63;;
37231;SDS011;23125;48.156;15.954;2022-12-26T08:23:40;9.25;;;5.63;;
37231;SDS011;23125;48.156;15.954;2022-12-26T08:26:06;11.07;;;6.45;;
37231;SDS011;23125;48.156;15.954;2022-12-26T08:28:34;10.68;;;7.15;;
37231;SDS011;23125;48.156;15.954;2022-12-26T08:31:04;9.18;;;6.35;;
37231;SDS011;23125;48.156;15.954;2022-12-26T08:33:32;6.25;;;4.63;;
37231;SDS011;23125;48.156;15.954;2022-12-26T08:36:02;5.63;;;4.03;;
37231;SDS011;23125;48.156;15.954;2022-12-26T08:38:28;6.30;;;3.55;;
37231;SDS011;23125;48.156;15.954;2022-12-26T08:40:54;5.38;;;4.50;;
37231;SDS011;23125;48.156;15.954;2022-12-26T08:43:21;6.90;;;5.43;;
37231;SDS011;23125;48.156;15.954;2022-12-26T08:46:05;9.23;;;5.63;;
37231;SDS011;23125;48.156;15.954;2022-12-26T08:48:33;11.15;;;7.50;;
37231;SDS011;23125;48.156;15.954;2022-12-26T08:51:03;13.15;;;6.60;;
37231;SDS011;23125;48.156;15.954;2022-12-26T08:53:44;8.98;;;5.30;;
37231;SDS011;23125;48.156;15.954;2022-12-26T08:56:12;8.82;;;5.47;;
37231;SDS011;23125;48.156;15.954;2022-12-26T08:58:40;8.68;;;6.53;;
37231;SDS011;23125;48.156;15.954;2022-12-26T09:01:16;7.80;;;6.10;;
37231;SDS011;23125;48.156;15.954;2022-12-26T09:03:43;10.68;;;6.32;;
37231;SDS011;23125;48.156;15.954;2022-12-26T09:06:11;7.20;;;5.13;;
37231;SDS011;23125;48.156;15.954;2022-12-26T09:08:38;8.90;;;6.43;;
37231;SDS011;23125;48.156;15.954;2022-12-26T09:11:06;7.65;;;6.03;;
37231;SDS011;23125;48.156;15.954;2022-12-26T09:13:35;9.65;;;6.43;;
37231;SDS011;23125;48.156;15.954;2022-12-26T09:18:37;8.70;;;6.28;;
37231;SDS011;23125;48.156;15.954;2022-12-26T09:21:04;8.68;;;6.60;;
37231;SDS011;23125;48.156;15.954;2022-12-26T09:23:32;11.95;;;8.50;;
37231;SDS011;23125;48.156;15.954;2022-12-26T09:26:17;9.85;;;7.28;;
37231;SDS011;23125;48.156;15.954;2022-12-26T09:28:44;10.10;;;7.47;;
37231;SDS011;23125;48.156;15.954;2022-12-26T09:31:18;19.65;;;11.45;;
37231;SDS011;23125;48.156;15.954;2022-12-26T09:33:46;16.80;;;11.27;;
37231;SDS011;23125;48.156;15.954;2022-12-26T09:36:13;15.55;;;10.48;;
37231;SDS011;23125;48.156;15.954;2022-12-26T09:38:42;19.52;;;10.88;;
37231;SDS011;23125;48.156;15.954;2022-12-26T09:44:04;17.98;;;11.88;;
37231;SDS011;23125;48.156;15.954;2022-12-26T09:49:11;13.20;;;8.77;;
37231;SDS011;23125;48.156;15.954;2022-12-26T09:51:42;36.17;;;16.42;;
37231;SDS011;23125;48.156;15.954;2022-12-26T09:54:14;25.08;;;13.25;;
37231;SDS011;23125;48.156;15.954;2022-12-26T09:56:51;23.13;;;12.70;;
37231;SDS011;23125;48.156;15.954;2022-12-26T09:59:18;23.45;;;11.38;;
37231;SDS011;23125;48.156;15.954;2022-12-26T10:01:48;17.88;;;9.13;;
37231;SDS011;23125;48.156;15.954;2022-12-26T10:06:56;13.75;;;8.70;;
37231;SDS011;23125;48.156;15.954;2022-12-26T10:14:58;18.38;;;10.70;;
37231;SDS011;23125;48.156;15.954;2022-12-26T10:17:39;17.30;;;9.57;;
37231;SDS011;23125;48.156;15.954;2022-12-26T10:25:45;15.75;;;9.52;;
37231;SDS011;23125;48.156;15.954;2022-12-26T10:30:52;40.38;;;20.63;;
37231;SDS011;23125;48.156;15.954;2022-12-26T10:33:34;24.95;;;11.93;;
37231;SDS011;23125;48.156;15.954;2022-12-26T10:36:09;20.08;;;10.57;;
37231;SDS011;23125;48.156;15.954;2022-12-26T10:38:43;17.58;;;10.15;;
37231;SDS011;23125;48.156;15.954;2022-12-26T10:41:22;18.13;;;10.45;;
37231;SDS011;23125;48.156;15.954;2022-12-26T10:43:55;17.25;;;10.23;;
37231;SDS011;23125;48.156;15.954;2022-12-26T10:46:26;14.25;;;9.43;;
37231;SDS011;23125;48.156;15.954;2022-12-26T10:49:01;15.15;;;9.55;;
37231;SDS011;23125;48.156;15.954;2022-12-26T10:51:27;15.25;;;9.20;;
37231;SDS011;23125;48.156;15.954;2022-12-26T10:53:53;17.25;;;9.77;;
37231;SDS011;23125;48.156;15.954;2022-12-26T10:56:20;12.77;;;7.93;;
37231;SDS011;23125;48.156;15.954;2022-12-26T10:58:48;10.18;;;7.47;;
37231;SDS011;23125;48.156;15.954;2022-12-26T11:01:34;10.23;;;7.07;;
37231;SDS011;23125;48.156;15.954;2022-12-26T11:04:03;11.57;;;6.80;;
37231;SDS011;23125;48.156;15.954;2022-12-26T11:06:38;10.68;;;6.88;;
37231;SDS011;23125;48.156;15.954;2022-12-26T11:09:06;14.30;;;8.93;;
37231;SDS011;23125;48.156;15.954;2022-12-26T11:11:47;17.80;;;11.07;;
37231;SDS011;23125;48.156;15.954;2022-12-26T11:14:29;21.23;;;11.07;;
37231;SDS011;23125;48.156;15.954;2022-12-26T11:17:04;18.95;;;11.55;;
37231;SDS011;23125;48.156;15.954;2022-12-26T11:19:37;20.52;;;11.75;;
37231;SDS011;23125;48.156;15.954;2022-12-26T11:22:24;21.90;;;13.23;;
37231;SDS011;23125;48.156;15.954;2022-12-26T11:27:44;10.82;;;6.25;;
37231;SDS011;23125;48.156;15.954;2022-12-26T11:32:38;6.03;;;4.25;;
37231;SDS011;23125;48.156;15.954;2022-12-26T11:37:52;3.90;;;2.40;;
37231;SDS011;23125;48.156;15.954;2022-12-26T11:42:54;5.10;;;2.83;;
37231;SDS011;23125;48.156;15.954;2022-12-26T11:45:23;18.40;;;8.45;;
37231;SDS011;23125;48.156;15.954;2022-12-26T11:50:18;3.13;;;2.25;;
37231;SDS011;23125;48.156;15.954;2022-12-26T11:52:50;4.78;;;2.83;;
37231;SDS011;23125;48.156;15.954;2022-12-26T11:57:54;5.07;;;2.83;;
37231;SDS011;23125;48.156;15.954;2022-12-26T12:00:26;5.45;;;3.00;;
37231;SDS011;23125;48.156;15.954;2022-12-26T12:02:52;6.18;;;3.75;;
37231;SDS011;23125;48.156;15.954;2022-12-26T12:05:41;9.00;;;5.00;;
37231;SDS011;23125;48.156;15.954;2022-12-26T12:16:33;10.88;;;7.47;;
37231;SDS011;23125;48.156;15.954;2022-12-26T12:32:51;10.25;;;7.32;;
37231;SDS011;23125;48.156;15.954;2022-12-26T12:44:12;12.10;;;8.75;;
37231;SDS011;23125;48.156;15.954;2022-12-26T12:52:26;8.82;;;6.60;;
37231;SDS011;23125;48.156;15.954;2022-12-26T12:57:43;9.20;;;7.28;;
37231;SDS011;23125;48.156;15.954;2022-12-26T13:00:23;10.70;;;6.63;;
37231;SDS011;23125;48.156;15.954;2022-12-26T13:08:41;9.77;;;6.60;;
37231;SDS011;23125;48.156;15.954;2022-12-26T13:11:19;13.75;;;8.23;;
37231;SDS011;23125;48.156;15.954;2022-12-26T13:16:55;8.30;;;5.87;;
37231;SDS011;23125;48.156;15.954;2022-12-26T13:19:23;13.10;;;8.57;;
37231;SDS011;23125;48.156;15.954;2022-12-26T13:21:55;18.65;;;11.75;;
37231;SDS011;23125;48.156;15.954;2022-12-26T13:26:54;12.40;;;8.05;;
37231;SDS011;23125;48.156;15.954;2022-12-26T13:31:58;11.07;;;6.57;;
37231;SDS011;23125;48.156;15.954;2022-12-26T13:34:26;18.23;;;11.32;;
37231;SDS011;23125;48.156;15.954;2022-12-26T13:36:53;44.65;;;24.08;;
37231;SDS011;23125;48.156;15.954;2022-12-26T13:39:33;19.75;;;12.20;;
37231;SDS011;23125;48.156;15.954;2022-12-26T13:42:02;15.07;;;10.00;;
37231;SDS011;23125;48.156;15.954;2022-12-26T13:44:51;14.60;;;9.00;;
37231;SDS011;23125;48.156;15.954;2022-12-26T13:55:49;14.40;;;10.75;;
37231;SDS011;23125;48.156;15.954;2022-12-26T14:07:03;8.02;;;5.30;;
37231;SDS011;23125;48.156;15.954;2022-12-26T14:09:57;8.88;;;6.13;;
37231;SDS011;23125;48.156;15.954;2022-12-26T14:21:18;9.32;;;5.85;;
37231;SDS011;23125;48.156;15.954;2022-12-26T14:26:40;9.50;;;5.68;;
37231;SDS011;23125;48.156;15.954;2022-12-26T14:35:13;12.25;;;6.38;;
37231;SDS011;23125;48.156;15.954;2022-12-26T14:38:03;17.52;;;8.60;;
37231;SDS011;23125;48.156;15.954;2022-12-26T14:41:03;16.05;;;8.30;;
37231;SDS011;23125;48.156;15.954;2022-12-26T14:45:56;14.18;;;6.43;;
37231;SDS011;23125;48.156;15.954;2022-12-26T14:53:44;14.05;;;6.78;;
37231;SDS011;23125;48.156;15.954;2022-12-26T14:58:46;19.25;;;8.25;;
37231;SDS011;23125;48.156;15.954;2022-12-26T15:06:56;9.70;;;5.18;;
37231;SDS011;23125;48.156;15.954;2022-12-26T15:15:32;6.75;;;3.95;;
37231;SDS011;23125;48.156;15.954;2022-12-26T15:29:35;11.13;;;7.03;;
37231;SDS011;23125;48.156;15.954;2022-12-26T15:41:10;10.20;;;4.45;;
37231;SDS011;23125;48.156;15.954;2022-12-26T15:49:01;25.20;;;12.00;;
37231;SDS011;23125;48.156;15.954;2022-12-26T15:57:44;19.92;;;9.23;;
37231;SDS011;23125;48.156;15.954;2022-12-26T16:02:54;11.95;;;6.05;;
37231;SDS011;23125;48.156;15.954;2022-12-26T16:05:46;10.75;;;6.13;;
37231;SDS011;23125;48.156;15.954;2022-12-26T16:18:56;10.63;;;6.40;;
37231;SDS011;23125;48.156;15.954;2022-12-26T16:21:25;11.25;;;5.95;;
37231;SDS011;23125;48.156;15.954;2022-12-26T16:24:11;19.88;;;8.65;;
37231;SDS011;23125;48.156;15.954;2022-12-26T16:26:43;20.13;;;8.88;;
37231;SDS011;23125;48.156;15.954;2022-12-26T16:29:20;10.82;;;5.40;;
37231;SDS011;23125;48.156;15.954;2022-12-26T16:31:46;20.48;;;10.68;;
37231;SDS011;23125;48.156;15.954;2022-12-26T16:34:13;21.60;;;9.98;;
37231;SDS011;23125;48.156;15.954;2022-12-26T16:36:44;20.42;;;10.60;;
37231;SDS011;23125;48.156;15.954;2022-12-26T16:39:11;18.05;;;8.95;;
37231;SDS011;23125;48.156;15.954;2022-12-26T16:41:58;15.00;;;8.02;;
37231;SDS011;23125;48.156;15.954;2022-12-26T16:44:44;12.40;;;7.57;;
37231;SDS011;23125;48.156;15.954;2022-12-26T16:47:11;12.23;;;7.55;;
37231;SDS011;23125;48.156;15.954;2022-12-26T16:49:38;10.13;;;5.53;;
37231;SDS011;23125;48.156;15.954;2022-12-26T16:57:53;4.28;;;2.72;;
37231;SDS011;23125;48.156;15.954;2022-12-26T17:00:22;5.72;;;3.35;;
37231;SDS011;23125;48.156;15.954;2022-12-26T17:02:50;3.85;;;2.58;;
37231;SDS011;23125;48.156;15.954;2022-12-26T17:05:23;7.35;;;5.25;;
37231;SDS011;23125;48.156;15.954;2022-12-26T17:07:55;5.20;;;3.55;;
37231;SDS011;23125;48.156;15.954;2022-12-26T17:12:51;4.50;;;3.58;;
37231;SDS011;23125;48.156;15.954;2022-12-26T17:15:20;6.18;;;3.40;;
37231;SDS011;23125;48.156;15.954;2022-12-26T17:17:48;5.07;;;3.10;;
37231;SDS011;23125;48.156;15.954;2022-12-26T17:22:54;2.97;;;2.13;;
37231;SDS011;23125;48.156;15.954;2022-12-26T17:25:22;7.53;;;4.60;;
37231;SDS011;23125;48.156;15.954;2022-12-26T17:30:43;2.63;;;1.70;;
37231;SDS011;23125;48.156;15.954;2022-12-26T17:33:11;3.15;;;1.48;;
37231;SDS011;23125;48.156;15.954;2022-12-26T17:35:39;3.22;;;1.60;;
37231;SDS011;23125;48.156;15.954;2022-12-26T17:38:10;2.45;;;1.42;;
37231;SDS011;23125;48.156;15.954;2022-12-26T17:40:45;3.55;;;2.08;;
37231;SDS011;23125;48.156;15.954;2022-12-26T17:45:39;2.55;;;1.35;;
37231;SDS011;23125;48.156;15.954;2022-12-26T17:48:08;3.47;;;1.35;;
37231;SDS011;23125;48.156;15.954;2022-12-26T17:50:35;2.38;;;1.35;;
37231;SDS011;23125;48.156;15.954;2022-12-26T17:53:06;3.10;;;1.95;;
37231;SDS011;23125;48.156;15.954;2022-12-26T17:55:53;3.88;;;1.77;;
37231;SDS011;23125;48.156;15.954;2022-12-26T17:58:20;1.63;;;0.75;;
37231;SDS011;23125;48.156;15.954;2022-12-26T18:00:47;2.50;;;1.67;;
37231;SDS011;23125;48.156;15.954;2022-12-26T18:03:14;5.32;;;3.00;;
37231;SDS011;23125;48.156;15.954;2022-12-26T18:05:40;1.90;;;0.93;;
37231;SDS011;23125;48.156;15.954;2022-12-26T18:08:09;3.13;;;1.50;;
37231;SDS011;23125;48.156;15.954;2022-12-26T18:10:50;1.42;;;0.73;;
37231;SDS011;23125;48.156;15.954;2022-12-26T18:13:16;2.33;;;1.00;;
37231;SDS011;23125;48.156;15.954;2022-12-26T18:15:42;2.42;;;1.20;;
37231;SDS011;23125;48.156;15.954;2022-12-26T18:18:50;2.65;;;1.20;;
37231;SDS011;23125;48.156;15.954;2022-12-26T18:21:02;1.35;;;0.82;;
37231;SDS011;23125;48.156;15.954;2022-12-26T18:23:29;1.85;;;0.60;;
37231;SDS011;23125;48.156;15.954;2022-12-26T18:25:56;1.23;;;0.52;;
37231;SDS011;23125;48.156;15.954;2022-12-26T18:28:26;2.03;;;0.73;;
37231;SDS011;23125;48.156;15.954;2022-12-26T18:30:52;1.10;;;0.60;;
37231;SDS011;23125;48.156;15.954;2022-12-26T18:33:19;1.88;;;0.90;;
37231;SDS011;23125;48.156;15.954;2022-12-26T18:35:45;3.47;;;1.75;;
37231;SDS011;23125;48.156;15.954;2022-12-26T18:38:13;3.58;;;1.70;;
37231;SDS011;23125;48.156;15.954;2022-12-26T18:40:48;1.60;;;0.80;;
37231;SDS011;23125;48.156;15.954;2022-12-26T18:43:17;2.65;;;1.33;;
37231;SDS011;23125;48.156;15.954;2022-12-26T18:45:43;6.60;;;3.63;;
37231;SDS011;23125;48.156;15.954;2022-12-26T18:48:12;7.88;;;3.40;;
37231;SDS011;23125;48.156;15.954;2022-12-26T18:50:39;3.05;;;1.50;;
37231;SDS011;23125;48.156;15.954;2022-12-26T18:53:05;0.75;;;0.25;;
37231;SDS011;23125;48.156;15.954;2022-12-26T18:55:31;4.18;;;2.40;;
37231;SDS011;23125;48.156;15.954;2022-12-26T18:57:57;9.48;;;5.07;;
37231;SDS011;23125;48.156;15.954;2022-12-26T19:00:23;4.05;;;2.28;;
37231;SDS011;23125;48.156;15.954;2022-12-26T19:02:49;5.20;;;2.88;;
37231;SDS011;23125;48.156;15.954;2022-12-26T19:05:23;3.03;;;1.05;;
37231;SDS011;23125;48.156;15.954;2022-12-26T19:07:52;5.57;;;2.63;;
37231;SDS011;23125;48.156;15.954;2022-12-26T19:10:20;3.13;;;1.05;;